Ocean Highway — H3IE — position and weather

sailwx.info

Track history (hours):
 
Tides and Currents Weather Stations Pressure Air Temp Water Temp Dewpoint Dewpoint Depression Visibility Wind Speed Wind Dir Waves Ship Positions

Ocean Highway

Last reported at 2014-Nov-25 19:31 UTC. Time now 2014-Nov-27 13:13 UTC.
Position N 22°31' E 119°52'.

Length 179.1 m; beam 32.2 m.

Type: Cargo ship. MMSI: 353951000.

Date/timePositionNaut miles runAvg speedWind from/ knotsBaromVisibWave heightAir tempDewpointWater temp
2014-Nov-25 19:31N 22°31' E 119°52'1616.1
2014-Nov-25 18:33N 22°46' E 119°55'40915.6
2014-Nov-24 16:24N 29°07' E 122°39'11913.4
2014-Nov-24 07:33N 31°05' E 122°28'1413.9
2014-Nov-24 06:33N 31°09' E 122°13'1413.9
2014-Nov-24 05:33N 31°15' E 121°58'1312.6
2014-Nov-24 04:33N 31°19' E 121°44'3 2.5
2014-Nov-24 03:33N 31°19' E 121°41'0 0.0
2014-Nov-24 02:30N 31°19' E 121°41'0 0.0
2014-Nov-24 01:33N 31°19' E 121°41'0 0.0
2014-Nov-24 00:33N 31°19' E 121°41'0 0.0
2014-Nov-23 23:33N 31°19' E 121°41'0 0.0
2014-Nov-23 22:33N 31°19' E 121°41'0 0.0
2014-Nov-23 21:33N 31°19' E 121°41'0 0.0
2014-Nov-23 20:33N 31°19' E 121°41'0 0.0
2014-Nov-23 19:33N 31°19' E 121°41'0 0.0
2014-Nov-23 18:33N 31°19' E 121°41'0 0.0
2014-Nov-23 17:33N 31°19' E 121°41'1 1.0
2014-Nov-23 16:33N 31°20' E 121°40'4 4.1
2014-Nov-23 15:33N 31°19' E 121°45'9 9.4
2014-Nov-23 14:33N 31°16' E 121°55'9 9.4
2014-Nov-23 13:33N 31°14' E 122°06'8 8.4
2014-Nov-23 12:33N 31°09' E 122°14'1110.7
2014-Nov-23 11:33N 31°06' E 122°26'8 3.5
2014-Nov-23 09:09N 31°10' E 122°35'0 0.0
2014-Nov-23 08:33N 31°10' E 122°35'0 0.0
2014-Nov-23 07:30N 31°10' E 122°35'0 0.0
2014-Nov-23 05:33N 31°10' E 122°35'0 0.0
2014-Nov-23 01:27N 31°10' E 122°35'0 0.1
2014-Nov-23 00:27N 31°10' E 122°35'0 0.1
2014-Nov-22 23:24N 31°10' E 122°35'0 0.1
2014-Nov-22 22:33N 31°10' E 122°35'0 0.0
2014-Nov-22 21:24N 31°10' E 122°35'0 0.0
2014-Nov-22 18:15N 31°10' E 122°35'0 0.0
2014-Nov-22 14:27N 31°10' E 122°35'0 0.0
2014-Nov-22 09:09N 31°10' E 122°35'0 0.0
2014-Nov-22 07:09N 31°10' E 122°35'0 0.0
2014-Nov-22 06:27N 31°10' E 122°35'0 0.0
2014-Nov-22 05:33N 31°10' E 122°35'0 0.0
2014-Nov-22 02:15N 31°10' E 122°35'0 0.0
2014-Nov-22 01:30N 31°10' E 122°35'0 0.1
2014-Nov-22 00:33N 31°10' E 122°35'0 0.3
2014-Nov-21 23:25N 31°10' E 122°35'4 4.2
2014-Nov-21 22:33N 31°06' E 122°34'3 1.6
2014-Nov-21 20:29N 31°08' E 122°37'0 0.0
2014-Nov-21 08:32N 31°08' E 122°37'0 0.0
2014-Nov-21 05:29N 31°08' E 122°37'0 0.0
2014-Nov-21 04:32N 31°09' E 122°37'0 0.0
2014-Nov-21 03:17N 31°09' E 122°37'0 0.0
2014-Nov-21 00:14N 31°08' E 122°37'0 0.0
2014-Nov-20 22:20N 31°08' E 122°37'0 0.1
2014-Nov-20 17:33N 31°09' E 122°38'  
Track history (hours):
 
Tides and Currents Weather Stations Pressure Air Temp Water Temp Dewpoint Dewpoint Depression Visibility Wind Speed Wind Dir Waves Ship Positions

Ocean Highway

Last reported at 2014-Nov-25 19:31 UTC. Time now 2014-Nov-27 13:13 UTC.
Position N 22°31' E 119°52'.

Length 179.1 m; beam 32.2 m.

Type: Cargo ship. MMSI: 353951000.

Date/timePositionNaut miles runAvg speedWind from/ knotsBaromVisibWave heightAir tempDewpointWater temp
2014-Nov-25 19:31N 22°31' E 119°52'1616.1
2014-Nov-25 18:33N 22°46' E 119°55'40915.6
2014-Nov-24 16:24N 29°07' E 122°39'11913.4
2014-Nov-24 07:33N 31°05' E 122°28'1413.9
2014-Nov-24 06:33N 31°09' E 122°13'1413.9
2014-Nov-24 05:33N 31°15' E 121°58'1312.6
2014-Nov-24 04:33N 31°19' E 121°44'3 2.5
2014-Nov-24 03:33N 31°19' E 121°41'0 0.0
2014-Nov-24 02:30N 31°19' E 121°41'0 0.0
2014-Nov-24 01:33N 31°19' E 121°41'0 0.0
2014-Nov-24 00:33N 31°19' E 121°41'0 0.0
2014-Nov-23 23:33N 31°19' E 121°41'0 0.0
2014-Nov-23 22:33N 31°19' E 121°41'0 0.0
2014-Nov-23 21:33N 31°19' E 121°41'0 0.0
2014-Nov-23 20:33N 31°19' E 121°41'0 0.0
2014-Nov-23 19:33N 31°19' E 121°41'0 0.0
2014-Nov-23 18:33N 31°19' E 121°41'0 0.0
2014-Nov-23 17:33N 31°19' E 121°41'1 1.0
2014-Nov-23 16:33N 31°20' E 121°40'4 4.1
2014-Nov-23 15:33N 31°19' E 121°45'9 9.4
2014-Nov-23 14:33N 31°16' E 121°55'9 9.4
2014-Nov-23 13:33N 31°14' E 122°06'8 8.4
2014-Nov-23 12:33N 31°09' E 122°14'1110.7
2014-Nov-23 11:33N 31°06' E 122°26'8 3.5
2014-Nov-23 09:09N 31°10' E 122°35'0 0.0
2014-Nov-23 08:33N 31°10' E 122°35'0 0.0
2014-Nov-23 07:30N 31°10' E 122°35'0 0.0
2014-Nov-23 05:33N 31°10' E 122°35'0 0.0
2014-Nov-23 01:27N 31°10' E 122°35'0 0.1
2014-Nov-23 00:27N 31°10' E 122°35'0 0.1
2014-Nov-22 23:24N 31°10' E 122°35'0 0.1
2014-Nov-22 22:33N 31°10' E 122°35'0 0.0
2014-Nov-22 21:24N 31°10' E 122°35'0 0.0
2014-Nov-22 18:15N 31°10' E 122°35'0 0.0
2014-Nov-22 14:27N 31°10' E 122°35'0 0.0
2014-Nov-22 09:09N 31°10' E 122°35'0 0.0
2014-Nov-22 07:09N 31°10' E 122°35'0 0.0
2014-Nov-22 06:27N 31°10' E 122°35'0 0.0
2014-Nov-22 05:33N 31°10' E 122°35'0 0.0
2014-Nov-22 02:15N 31°10' E 122°35'0 0.0
2014-Nov-22 01:30N 31°10' E 122°35'0 0.1
2014-Nov-22 00:33N 31°10' E 122°35'0 0.3
2014-Nov-21 23:25N 31°10' E 122°35'4 4.2
2014-Nov-21 22:33N 31°06' E 122°34'3 1.6
2014-Nov-21 20:29N 31°08' E 122°37'0 0.0
2014-Nov-21 08:32N 31°08' E 122°37'0 0.0
2014-Nov-21 05:29N 31°08' E 122°37'0 0.0
2014-Nov-21 04:32N 31°09' E 122°37'0 0.0
2014-Nov-21 03:17N 31°09' E 122°37'0 0.0
2014-Nov-21 00:14N 31°08' E 122°37'0 0.0
2014-Nov-20 22:20N 31°08' E 122°37'0 0.1
2014-Nov-20 17:33N 31°09' E 122°38'  

Dump ship's entire track history